Time,TemperatureF,DewpointF,PressureIn,WindDirection,WindDirectionDegrees,WindSpeedMPH,WindSpeedGustMPH,Humidity,HourlyPrecipIn,Conditions,Clouds,dailyrainin,SolarRadiationWatts/m^2,SoftwareType,DateUTC
2013-03-11 00:00:00,35.6,32.1,30.30,SW,230,0.0,0.0,87,0.00,,,0.00,0,Wunderground v.1.15,2013-03-11 04:00:00,
2013-03-11 00:10:00,35.6,32.1,30.30,SW,230,0.0,0.0,87,0.00,,,0.00,0,Wunderground v.1.15,2013-03-11 04:10:00,
2013-03-11 00:20:00,35.6,32.1,30.29,SW,230,0.0,0.0,87,0.00,,,0.00,0,Wunderground v.1.15,2013-03-11 04:20:00,
2013-03-11 00:30:00,35.7,32.2,30.28,SW,230,0.0,0.0,87,0.00,,,0.00,0,Wunderground v.1.15,2013-03-11 04:30:00,
2013-03-11 00:40:00,35.7,32.2,30.29,SW,230,0.0,8.0,87,0.00,,,0.00,0,Wunderground v.1.15,2013-03-11 04:40:00,
2013-03-11 00:50:00,35.7,32.5,30.29,SW,230,0.0,8.0,88,0.00,,,0.00,0,Wunderground v.1.15,2013-03-11 04:50:00,
2013-03-11 01:00:00,35.9,32.7,30.30,SW,215,1.0,1.0,88,0.00,,,0.00,0,Wunderground v.1.15,2013-03-11 05:00:00,
2013-03-11 01:20:00,36.1,32.9,30.30,SSW,212,1.0,1.0,88,0.00,,,0.00,0,Wunderground v.1.15,2013-03-11 05:20:00,
2013-03-11 01:30:00,36.2,33.0,30.30,SSW,200,1.0,2.0,88,0.00,,,0.00,0,Wunderground v.1.15,2013-03-11 05:30:00,
2013-03-11 01:40:00,36.3,33.1,30.29,SSW,213,2.0,2.0,88,0.00,,,0.00,0,Wunderground v.1.15,2013-03-11 05:40:00,
2013-03-11 01:50:00,36.4,33.2,30.29,SSW,213,2.0,2.0,88,0.00,,,0.00,0,Wunderground v.1.15,2013-03-11 05:50:00,
2013-03-11 02:00:00,36.4,33.2,30.29,SW,215,1.0,1.0,88,0.00,,,0.00,0,Wunderground v.1.15,2013-03-11 06:00:00,
2013-03-11 02:10:00,36.4,33.2,30.30,SW,219,1.0,3.0,88,0.00,,,0.00,0,Wunderground v.1.15,2013-03-11 06:10:00,
2013-03-11 02:40:00,36.5,33.3,30.28,SW,231,2.0,6.0,88,0.00,,,0.00,0,Wunderground v.1.15,2013-03-11 06:40:00,
2013-03-11 02:50:00,36.6,33.4,30.27,SSW,204,1.0,1.0,88,0.00,,,0.00,0,Wunderground v.1.15,2013-03-11 06:50:00,
2013-03-11 03:00:00,36.6,33.4,30.27,SSW,211,2.0,2.0,88,0.00,,,0.00,0,Wunderground v.1.15,2013-03-11 07:00:00,
2013-03-11 03:10:00,36.8,33.6,30.27,SW,223,2.0,2.0,88,0.00,,,0.00,0,Wunderground v.1.15,2013-03-11 07:10:00,
2013-03-11 03:20:00,36.9,33.7,30.26,South,187,2.0,2.0,88,0.00,,,0.00,0,Wunderground v.1.15,2013-03-11 07:20:00,
2013-03-11 03:30:00,36.8,33.6,30.25,South,187,0.0,1.0,88,0.00,,,0.00,0,Wunderground v.1.15,2013-03-11 07:30:00,
2013-03-11 03:40:00,36.7,33.5,30.24,South,182,1.0,7.0,88,0.00,,,0.00,0,Wunderground v.1.15,2013-03-11 07:40:00,
2013-03-11 03:50:00,36.7,33.5,30.24,SW,216,1.0,1.0,88,0.00,,,0.00,0,Wunderground v.1.15,2013-03-11 07:50:00,
2013-03-11 04:00:00,36.6,33.7,30.24,SW,216,1.0,2.0,89,0.00,,,0.00,0,Wunderground v.1.15,2013-03-11 08:00:00,
2013-03-11 04:20:00,36.5,33.6,30.23,SSW,211,1.0,1.0,89,0.00,,,0.00,0,Wunderground v.1.15,2013-03-11 08:20:00,
2013-03-11 04:30:00,36.5,33.6,30.23,South,182,2.0,2.0,89,0.00,,,0.00,0,Wunderground v.1.15,2013-03-11 08:30:00,
2013-03-11 05:00:00,36.6,33.9,30.23,SW,215,2.0,2.0,90,0.00,,,0.00,0,Wunderground v.1.15,2013-03-11 09:00:00,
2013-03-11 05:10:00,36.6,33.9,30.22,SW,229,0.0,3.0,90,0.00,,,0.00,0,Wunderground v.1.15,2013-03-11 09:10:00,
2013-03-11 05:20:00,36.7,34.3,30.23,SW,223,1.0,1.0,91,0.00,,,0.00,0,Wunderground v.1.15,2013-03-11 09:20:00,
2013-03-11 05:30:00,36.7,34.3,30.23,SW,225,1.0,1.0,91,0.00,,,0.00,0,Wunderground v.1.15,2013-03-11 09:30:00,
2013-03-11 05:40:00,36.8,34.4,30.23,WSW,242,2.0,7.0,91,0.00,,,0.00,0,Wunderground v.1.15,2013-03-11 09:40:00,
2013-03-11 05:50:00,36.8,34.4,30.22,SSW,207,1.0,7.0,91,0.00,,,0.00,0,Wunderground v.1.15,2013-03-11 09:50:00,
2013-03-11 06:00:00,36.8,34.4,30.22,SSW,209,2.0,2.0,91,0.00,,,0.00,0,Wunderground v.1.15,2013-03-11 10:00:00,
2013-03-11 06:10:00,36.7,34.3,30.22,WSW,250,2.0,2.0,91,0.00,,,0.00,0,Wunderground v.1.15,2013-03-11 10:10:00,
2013-03-11 06:20:00,36.6,34.2,30.22,SW,219,2.0,2.0,91,0.00,,,0.00,0,Wunderground v.1.15,2013-03-11 10:20:00,
2013-03-11 06:30:00,36.6,34.2,30.22,SSW,192,2.0,2.0,91,0.00,,,0.00,0,Wunderground v.1.15,2013-03-11 10:30:00,
2013-03-11 06:50:00,36.6,33.9,30.22,SW,219,3.0,6.0,90,0.00,,,0.00,0,Wunderground v.1.15,2013-03-11 10:50:00,
2013-03-11 07:00:00,36.6,33.9,30.23,SSW,208,4.0,4.0,90,0.00,,,0.00,5,Wunderground v.1.15,2013-03-11 11:00:00,
2013-03-11 07:30:00,36.4,34.0,30.24,SW,218,3.0,4.0,91,0.00,,,0.00,30,Wunderground v.1.15,2013-03-11 11:30:00,
2013-03-11 07:40:00,36.4,34.0,30.24,SSW,202,4.0,4.0,91,0.00,,,0.00,30,Wunderground v.1.15,2013-03-11 11:40:00,
2013-03-11 07:50:00,36.4,34.0,30.24,SSW,198,4.0,4.0,91,0.00,,,0.00,37,Wunderground v.1.15,2013-03-11 11:50:00,
2013-03-11 08:00:00,36.5,34.1,30.24,South,174,2.0,5.0,91,0.00,,,0.00,46,Wunderground v.1.15,2013-03-11 12:00:00,
2013-03-11 08:10:00,36.5,34.1,30.24,WSW,238,3.0,3.0,91,0.00,,,0.00,47,Wunderground v.1.15,2013-03-11 12:10:00,
2013-03-11 08:20:00,36.5,34.1,30.24,SW,224,2.0,2.0,91,0.00,,,0.00,32,Wunderground v.1.15,2013-03-11 12:20:00,
2013-03-11 08:40:00,36.5,34.1,30.25,SW,217,3.0,3.0,91,0.00,,,0.00,28,Wunderground v.1.15,2013-03-11 12:40:00,
2013-03-11 08:50:00,36.6,34.2,30.25,SSW,203,1.0,1.0,91,0.00,,,0.00,77,Wunderground v.1.15,2013-03-11 12:50:00,
2013-03-11 09:10:00,36.9,34.5,30.25,West,273,3.0,3.0,91,0.00,,,0.00,62,Wunderground v.1.15,2013-03-11 13:10:00,
2013-03-11 09:20:00,36.8,34.4,30.25,SSW,205,4.0,4.0,91,0.00,,,0.00,81,Wunderground v.1.15,2013-03-11 13:20:00,
2013-03-11 09:30:00,37.0,34.6,30.25,SW,232,4.0,4.0,91,0.00,,,0.00,132,Wunderground v.1.15,2013-03-11 13:30:00,
2013-03-11 09:40:00,37.5,34.8,30.24,SW,223,3.0,3.0,90,0.00,,,0.00,200,Wunderground v.1.15,2013-03-11 13:40:00,
2013-03-11 10:00:00,38.2,35.0,30.23,SSW,213,3.0,3.0,88,0.00,,,0.00,204,Wunderground v.1.15,2013-03-11 14:00:00,
2013-03-11 10:40:00,38.7,35.2,30.23,SSW,213,3.0,9.0,87,0.00,,,0.00,202,Wunderground v.1.15,2013-03-11 14:40:00,
2013-03-11 11:00:00,39.0,34.9,30.23,SW,224,4.0,4.0,85,0.00,,,0.00,267,Wunderground v.1.15,2013-03-11 15:00:00,
2013-03-11 11:10:00,39.2,35.1,30.23,SW,217,3.0,3.0,85,0.00,,,0.00,236,Wunderground v.1.15,2013-03-11 15:10:00,
2013-03-11 11:20:00,39.5,35.4,30.24,South,186,2.0,2.0,85,0.00,,,0.00,236,Wunderground v.1.15,2013-03-11 15:20:00,
2013-03-11 11:40:00,39.5,35.4,30.23,SW,222,4.0,11.0,85,0.00,,,0.00,267,Wunderground v.1.15,2013-03-11 15:40:00,
2013-03-11 11:50:00,39.4,35.3,30.23,SSE,166,4.0,11.0,85,0.00,,,0.00,213,Wunderground v.1.15,2013-03-11 15:50:00,
2013-03-11 12:00:00,39.4,35.3,30.23,SSE,163,3.0,3.0,85,0.00,,,0.00,339,Wunderground v.1.15,2013-03-11 16:00:00,
2013-03-11 12:10:00,39.5,35.1,30.23,SW,231,4.0,7.0,84,0.00,,,0.00,230,Wunderground v.1.15,2013-03-11 16:10:00,
2013-03-11 12:20:00,39.3,35.2,30.22,SSW,200,4.0,4.0,85,0.00,,,0.00,248,Wunderground v.1.15,2013-03-11 16:20:00,
2013-03-11 12:30:00,39.2,35.1,30.22,SSE,165,4.0,4.0,85,0.00,,,0.00,221,Wunderground v.1.15,2013-03-11 16:30:00,
2013-03-11 13:00:00,39.1,35.3,30.22,SSW,213,4.0,5.0,86,0.00,,,0.00,176,Wunderground v.1.15,2013-03-11 17:00:00,
2013-03-11 13:10:00,39.2,35.7,30.22,SW,222,2.0,6.0,87,0.00,,,0.00,229,Wunderground v.1.15,2013-03-11 17:10:00,
2013-03-11 13:20:00,39.6,35.8,30.22,SSW,210,4.0,6.0,86,0.00,,,0.00,257,Wunderground v.1.15,2013-03-11 17:20:00,
2013-03-11 13:30:00,39.7,35.9,30.21,SSW,207,4.0,4.0,86,0.00,,,0.00,404,Wunderground v.1.15,2013-03-11 17:30:00,
2013-03-11 13:40:00,40.2,36.3,30.22,SW,220,4.0,4.0,86,0.00,,,0.00,288,Wunderground v.1.15,2013-03-11 17:40:00,
2013-03-11 13:50:00,40.3,36.1,30.20,SSE,163,3.0,9.0,85,0.00,,,0.00,330,Wunderground v.1.15,2013-03-11 17:50:00,
2013-03-11 14:00:00,40.2,36.1,30.20,SW,226,4.0,5.0,85,0.00,,,0.00,320,Wunderground v.1.15,2013-03-11 18:00:00,
2013-03-11 14:10:00,40.1,36.0,30.21,SW,225,5.0,7.0,85,0.00,,,0.00,281,Wunderground v.1.15,2013-03-11 18:10:00,
2013-03-11 14:20:00,40.1,36.2,30.21,South,190,4.0,4.0,86,0.00,,,0.00,243,Wunderground v.1.15,2013-03-11 18:20:00,
2013-03-11 14:30:00,41.0,36.8,30.20,SW,229,2.0,2.0,85,0.00,,,0.00,287,Wunderground v.1.15,2013-03-11 18:30:00,
2013-03-11 14:40:00,41.2,36.7,30.20,SSW,205,3.0,12.0,84,0.00,,,0.00,258,Wunderground v.1.15,2013-03-11 18:40:00,
2013-03-11 15:00:00,40.5,36.6,30.19,SSW,211,3.0,3.0,86,0.00,,,0.00,257,Wunderground v.1.15,2013-03-11 19:00:00,
2013-03-11 15:31:00,40.7,36.8,30.18,West,271,4.0,4.0,86,0.00,,,0.00,214,Wunderground v.1.15,2013-03-11 19:31:00,
2013-03-11 15:50:00,40.7,37.1,30.18,SW,228,3.0,3.0,87,0.00,,,0.00,116,Wunderground v.1.15,2013-03-11 19:50:00,
2013-03-11 16:00:00,40.6,37.3,30.18,SW,215,3.0,3.0,88,0.00,,,0.00,102,Wunderground v.1.15,2013-03-11 20:00:00,
2013-03-11 16:10:00,40.5,37.5,30.18,South,185,3.0,3.0,89,0.00,,,0.00,88,Wunderground v.1.15,2013-03-11 20:10:00,
2013-03-11 16:40:00,40.3,37.6,30.18,SW,236,1.0,1.0,90,0.00,,,0.00,81,Wunderground v.1.15,2013-03-11 20:40:00,
2013-03-11 16:41:00,40.3,37.3,30.18,WSW,241,3.0,3.0,89,0.00,,,0.00,76,Wunderground v.1.15,2013-03-11 20:41:00,
2013-03-11 17:01:00,40.3,37.6,30.17,SW,219,1.0,11.0,90,0.00,,,0.00,70,Wunderground v.1.15,2013-03-11 21:01:00,
2013-03-11 17:11:00,40.2,37.5,30.17,SSW,213,2.0,2.0,90,0.00,,,0.00,67,Wunderground v.1.15,2013-03-11 21:11:00,
2013-03-11 17:31:00,40.1,37.4,30.17,SW,215,1.0,2.0,90,0.00,,,0.00,44,Wunderground v.1.15,2013-03-11 21:31:00,
2013-03-11 17:51:00,40.0,37.6,30.17,SW,215,0.0,8.0,91,0.00,,,0.00,26,Wunderground v.1.15,2013-03-11 21:51:00,
2013-03-11 18:11:00,39.9,37.8,30.17,SSW,208,0.0,2.0,92,0.00,,,0.00,11,Wunderground v.1.15,2013-03-11 22:11:00,
2013-03-11 18:20:00,39.8,37.7,30.17,SW,224,1.0,2.0,92,0.00,,,0.00,0,Wunderground v.1.15,2013-03-11 22:20:00,
2013-03-11 18:40:00,39.8,37.9,30.17,South,175,1.0,1.0,93,0.00,,,0.00,0,Wunderground v.1.15,2013-03-11 22:40:00,
2013-03-11 19:00:00,39.8,37.9,30.17,SW,227,1.0,3.0,93,0.00,,,0.00,0,Wunderground v.1.15,2013-03-11 23:00:00,
2013-03-11 19:21:00,40.0,38.1,30.17,SSW,213,1.0,2.0,93,0.00,,,0.00,0,Wunderground v.1.15,2013-03-11 23:21:00,
2013-03-11 19:31:00,40.0,38.1,30.17,SSW,207,1.0,1.0,93,0.00,,,0.00,0,Wunderground v.1.15,2013-03-11 23:31:00,
2013-03-11 19:40:00,40.0,38.1,30.17,SW,223,1.0,1.0,93,0.00,,,0.00,0,Wunderground v.1.15,2013-03-11 23:40:00,
2013-03-11 19:41:00,40.0,38.1,30.17,SSW,207,1.0,1.0,93,0.00,,,0.00,0,Wunderground v.1.15,2013-03-11 23:41:00,
2013-03-11 19:50:00,40.1,38.5,30.17,South,180,1.0,1.0,94,0.00,,,0.00,0,Wunderground v.1.15,2013-03-11 23:50:00,
2013-03-11 20:11:00,40.0,38.4,30.16,South,176,0.0,1.0,94,0.00,,,0.00,0,Wunderground v.1.15,2013-03-12 00:11:00,
2013-03-11 20:21:00,40.1,38.5,30.16,SSW,194,0.0,0.0,94,0.00,,,0.00,0,Wunderground v.1.15,2013-03-12 00:21:00,
2013-03-11 20:30:00,40.1,38.5,30.17,SSW,207,1.0,1.0,94,0.00,,,0.00,0,Wunderground v.1.15,2013-03-12 00:30:00,
2013-03-11 20:31:00,40.2,38.6,30.17,SSW,202,0.0,0.0,94,0.00,,,0.00,0,Wunderground v.1.15,2013-03-12 00:31:00,
2013-03-11 20:51:00,40.1,38.5,30.16,SSW,195,0.0,4.0,94,0.00,,,0.00,0,Wunderground v.1.15,2013-03-12 00:51:00,
2013-03-11 21:00:00,40.2,38.9,30.17,SSW,200,0.0,0.0,95,0.00,,,0.00,0,Wunderground v.1.15,2013-03-12 01:00:00,
2013-03-11 21:10:00,40.1,38.5,30.17,SSW,212,0.0,0.0,94,0.00,,,0.00,0,Wunderground v.1.15,2013-03-12 01:10:00,
2013-03-11 21:31:00,40.1,38.8,30.16,SW,226,0.0,0.0,95,0.00,,,0.00,0,Wunderground v.1.15,2013-03-12 01:31:00,
2013-03-11 21:41:00,40.1,38.8,30.16,SW,221,0.0,0.0,95,0.00,,,0.00,0,Wunderground v.1.15,2013-03-12 01:41:00,
2013-03-11 21:51:00,40.0,38.7,30.15,SW,221,0.0,6.0,95,0.00,,,0.00,0,Wunderground v.1.15,2013-03-12 01:51:00,
2013-03-11 22:01:00,40.1,38.8,30.16,SSW,203,0.0,6.0,95,0.00,,,0.00,0,Wunderground v.1.15,2013-03-12 02:01:00,
2013-03-11 22:11:00,40.2,38.9,30.15,WSW,248,0.0,0.0,95,0.00,,,0.00,0,Wunderground v.1.15,2013-03-12 02:11:00,
2013-03-11 22:21:00,40.3,39.0,30.15,South,180,0.0,0.0,95,0.00,,,0.00,0,Wunderground v.1.15,2013-03-12 02:21:00,
2013-03-11 22:31:00,40.4,39.1,30.16,WSW,240,0.0,0.0,95,0.00,,,0.00,0,Wunderground v.1.15,2013-03-12 02:31:00,
2013-03-11 22:41:00,40.6,39.3,30.16,South,188,1.0,1.0,95,0.00,,,0.00,0,Wunderground v.1.15,2013-03-12 02:41:00,
2013-03-11 22:51:00,40.6,39.0,30.15,ESE,116,1.0,4.0,94,0.00,,,0.00,0,Wunderground v.1.15,2013-03-12 02:51:00,
2013-03-11 23:01:00,40.5,38.9,30.15,ESE,121,0.0,4.0,94,0.00,,,0.00,0,Wunderground v.1.15,2013-03-12 03:01:00,
2013-03-11 23:21:00,40.6,39.3,30.16,SSW,198,1.0,1.0,95,0.00,,,0.00,0,Wunderground v.1.15,2013-03-12 03:21:00,
2013-03-11 23:31:00,40.5,38.9,30.16,SW,217,1.0,1.0,94,0.00,,,0.00,0,Wunderground v.1.15,2013-03-12 03:31:00,
2013-03-11 23:41:00,40.6,39.0,30.16,South,185,1.0,2.0,94,0.00,,,0.00,0,Wunderground v.1.15,2013-03-12 03:41:00,
2013-03-11 23:50:00,40.4,38.8,30.15,SSW,206,1.0,5.0,94,0.00,,,0.00,0,Wunderground v.1.15,2013-03-12 03:50:00,
2013-03-11 23:51:00,40.5,39.2,30.15,SSW,196,1.0,5.0,95,0.00,,,0.00,0,Wunderground v.1.15,2013-03-12 03:51:00,